createdAt,value
2018-12-03T00:01:31.171Z,33.17
2018-12-03T00:04:15.302Z,41.57
2018-12-03T00:06:43.928Z,46.97
2018-12-03T00:09:12.110Z,52.67
2018-12-03T00:11:40.192Z,61.80
2018-12-03T00:14:08.410Z,68.33
2018-12-03T00:16:36.504Z,76.03
2018-12-03T00:19:04.890Z,86.93
2018-12-03T00:21:33.033Z,95.37
2018-12-03T00:24:01.131Z,98.87
2018-12-03T00:26:29.266Z,106.10
2018-12-03T00:28:57.432Z,112.87
2018-12-03T00:31:25.580Z,125.03
2018-12-03T00:33:53.714Z,132.30
2018-12-03T00:36:21.815Z,140.87
2018-12-03T00:38:50.046Z,148.07
2018-12-03T00:41:18.170Z,160.50
2018-12-03T00:43:46.289Z,165.50
2018-12-03T00:46:14.387Z,170.40
2018-12-03T00:48:42.536Z,190.67
2018-12-03T00:51:10.658Z,185.17
2018-12-03T00:53:38.811Z,191.37
2018-12-03T00:56:06.935Z,195.23
2018-12-03T00:58:35.119Z,205.77
2018-12-03T01:01:03.225Z,213.30
2018-12-03T01:03:31.615Z,239.97
2018-12-03T01:05:59.700Z,240.00
2018-12-03T01:08:27.845Z,246.17
2018-12-03T01:10:55.971Z,252.63
2018-12-03T01:13:24.256Z,248.37
2018-12-03T01:15:52.912Z,266.43
2018-12-03T01:18:21.164Z,272.27
2018-12-03T01:20:49.328Z,281.83
2018-12-03T01:23:17.426Z,275.40
2018-12-03T01:25:45.536Z,273.23
2018-12-03T01:28:13.630Z,269.17
2018-12-03T01:30:41.771Z,283.17
2018-12-03T01:33:09.863Z,272.90
2018-12-03T01:35:37.950Z,288.87
2018-12-03T01:38:06.630Z,285.00
2018-12-03T01:40:34.827Z,302.13
2018-12-03T01:43:03.007Z,301.00
2018-12-03T01:45:31.130Z,287.20
2018-12-03T01:47:59.458Z,307.33
2018-12-03T01:50:27.539Z,298.17
2018-12-03T01:52:55.715Z,328.30
2018-12-03T01:55:23.828Z,316.87
2018-12-03T01:57:51.951Z,294.90
2018-12-03T02:00:20.259Z,315.07
2018-12-03T02:02:48.403Z,319.07
2018-12-03T02:05:16.547Z,337.03
2018-12-03T02:07:44.643Z,319.60
2018-12-03T02:10:13.895Z,330.87
2018-12-03T02:12:41.991Z,334.53
2018-12-03T02:15:12.205Z,310.77
2018-12-03T02:17:40.817Z,337.00
2018-12-03T02:20:12.370Z,328.70
2018-12-03T02:22:40.785Z,324.80
2018-12-03T02:25:09.835Z,330.50
2018-12-03T02:27:37.956Z,335.00
2018-12-03T02:30:12.328Z,324.97
2018-12-03T02:32:47.151Z,344.33
2018-12-03T02:35:15.542Z,340.93
2018-12-03T02:37:43.659Z,342.67
2018-12-03T02:40:17.174Z,343.73
2018-12-03T02:42:45.303Z,359.37
2018-12-03T02:45:14.493Z,333.27
2018-12-03T02:47:42.620Z,342.17
2018-12-03T02:50:11.810Z,353.67
2018-12-03T02:52:40.079Z,345.90
2018-12-03T02:55:10.129Z,340.23
2018-12-03T02:57:38.275Z,364.17
2018-12-03T03:00:11.867Z,358.87
2018-12-03T03:02:39.974Z,367.63
2018-12-03T03:05:09.947Z,360.33
2018-12-03T03:07:38.138Z,355.27
2018-12-03T03:10:11.455Z,355.23
2018-12-03T03:12:39.725Z,333.63
2018-12-03T03:15:09.319Z,348.63
2018-12-03T03:17:37.579Z,333.67
2018-12-03T03:20:07.188Z,343.93
2018-12-03T03:22:35.301Z,327.97
2018-12-03T03:25:03.388Z,327.43
2018-12-03T03:27:31.489Z,311.73
2018-12-03T03:29:59.595Z,331.50
2018-12-03T03:32:27.696Z,302.10
2018-12-03T03:34:55.827Z,346.40
2018-12-03T03:37:23.955Z,329.10
2018-12-03T03:39:52.041Z,322.03
2018-12-03T03:42:20.147Z,331.50
2018-12-03T03:44:48.253Z,322.63
2018-12-03T03:47:16.399Z,323.43
2018-12-03T03:49:44.588Z,315.17
2018-12-03T03:52:12.680Z,296.03
2018-12-03T03:54:40.928Z,280.90
2018-12-03T03:57:09.020Z,298.93
2018-12-03T03:59:37.155Z,302.97
2018-12-03T04:02:05.267Z,298.17
2018-12-03T04:04:33.447Z,290.23
2018-12-03T04:07:01.612Z,271.03
2018-12-03T04:09:29.752Z,284.87
2018-12-03T04:11:57.904Z,274.60
2018-12-03T04:14:26.023Z,288.23
2018-12-03T04:16:54.331Z,241.90
2018-12-03T04:19:22.456Z,249.60
2018-12-03T04:21:50.578Z,234.50
2018-12-03T04:24:18.682Z,255.80
2018-12-03T04:26:46.786Z,248.57
2018-12-03T04:29:14.906Z,203.37
2018-12-03T04:31:43.043Z,237.40
2018-12-03T04:34:11.167Z,228.10
2018-12-03T04:36:39.259Z,214.57
2018-12-03T04:39:08.179Z,229.97
2018-12-03T04:41:36.340Z,226.00
2018-12-03T04:44:04.958Z,235.17
2018-12-03T04:46:33.100Z,215.73
2018-12-03T04:49:01.210Z,188.40
2018-12-03T04:51:29.328Z,202.50
2018-12-03T04:53:57.433Z,190.40
2018-12-03T04:56:25.514Z,188.73
2018-12-03T04:58:53.670Z,183.43
2018-12-03T05:01:21.789Z,175.27
2018-12-03T05:03:49.887Z,167.70
2018-12-03T05:06:17.995Z,156.10
2018-12-03T05:08:46.105Z,160.43
2018-12-03T05:11:14.207Z,162.90
2018-12-03T05:13:42.431Z,157.40
2018-12-03T05:16:10.583Z,146.97
2018-12-03T05:18:38.708Z,133.60
2018-12-03T05:21:06.814Z,135.63
2018-12-03T05:23:34.995Z,142.73
2018-12-03T05:26:03.096Z,130.13
2018-12-03T05:28:31.195Z,123.70
2018-12-03T05:30:59.497Z,124.13
2018-12-03T05:33:27.582Z,128.77
2018-12-03T05:35:55.767Z,125.37
2018-12-03T05:38:23.917Z,113.77
2018-12-03T05:40:52.067Z,103.27
2018-12-03T05:43:20.182Z,117.97
2018-12-03T05:45:48.281Z,102.07
2018-12-03T05:48:16.443Z,98.40
2018-12-03T05:50:44.551Z,99.00
2018-12-03T05:53:12.636Z,92.77
2018-12-03T05:55:40.852Z,90.00
2018-12-03T05:58:09.052Z,84.17
2018-12-03T06:00:37.155Z,86.77
2018-12-03T06:03:05.719Z,73.17
2018-12-03T06:05:33.847Z,71.10
2018-12-03T06:08:01.935Z,76.93
2018-12-03T06:10:30.055Z,74.00
2018-12-03T06:12:58.172Z,67.00
2018-12-03T06:15:26.298Z,62.33
2018-12-03T06:17:55.871Z,60.63
2018-12-03T06:20:24.492Z,57.30
2018-12-03T06:22:53.713Z,58.13
2018-12-03T06:25:23.540Z,51.80
2018-12-03T06:27:52.382Z,53.47
2018-12-03T06:30:21.882Z,49.20
2018-12-03T06:32:50.161Z,47.03
2018-12-03T06:35:18.584Z,42.27
2018-12-03T06:37:46.915Z,41.33
2018-12-03T06:40:18.154Z,43.17
2018-12-03T06:42:46.248Z,36.90
2018-12-03T06:45:16.078Z,37.20
2018-12-03T06:47:50.199Z,36.93
2018-12-03T06:50:18.339Z,34.80
2018-12-03T06:52:46.560Z,35.80
2018-12-03T06:55:14.707Z,31.67
2018-12-03T06:57:42.806Z,29.07
2018-12-03T07:00:15.779Z,27.90
2018-12-03T07:02:44.231Z,26.40
2018-12-03T07:05:12.428Z,26.03
2018-12-03T07:07:41.149Z,24.27
2018-12-03T07:10:13.237Z,23.30
2018-12-03T07:12:41.566Z,21.77
2018-12-03T07:15:10.878Z,21.90
2018-12-03T07:17:39.102Z,20.27
2018-12-03T07:20:09.980Z,18.30
2018-12-03T07:22:38.187Z,18.67
2018-12-03T07:25:07.783Z,17.93
2018-12-03T07:27:35.955Z,17.33
2018-12-03T07:30:07.175Z,15.40
2018-12-03T07:32:35.305Z,15.57
2018-12-03T07:35:03.465Z,14.13
2018-12-03T07:37:31.569Z,13.00
2018-12-03T07:39:59.779Z,12.43
2018-12-03T07:42:28.207Z,12.83
2018-12-03T07:44:56.344Z,12.10
2018-12-03T07:47:24.987Z,10.60
2018-12-03T07:49:53.104Z,10.43
2018-12-03T07:52:21.419Z,10.40
2018-12-03T07:54:49.526Z,10.50
2018-12-03T07:57:17.768Z,9.33
2018-12-03T07:59:45.888Z,7.60
2018-12-03T08:02:14.107Z,8.00
2018-12-03T08:04:42.208Z,7.80
2018-12-03T08:07:10.323Z,7.10
2018-12-03T08:09:38.524Z,6.83
2018-12-03T08:12:06.778Z,6.80
2018-12-03T08:14:34.895Z,6.50
2018-12-03T08:17:03.109Z,6.50
2018-12-03T08:19:31.219Z,6.07
2018-12-03T08:21:59.317Z,6.00
2018-12-03T08:24:27.508Z,5.27
2018-12-03T08:26:55.704Z,5.17
2018-12-03T08:29:23.816Z,5.40
2018-12-03T08:31:51.909Z,4.60
2018-12-03T08:34:20.029Z,4.73
2018-12-03T08:36:48.116Z,4.43
2018-12-03T08:39:16.200Z,4.40
2018-12-03T08:41:44.316Z,4.13
2018-12-03T08:44:13.542Z,4.07
2018-12-03T08:46:40.622Z,3.97
2018-12-03T08:49:08.837Z,3.63
2018-12-03T08:51:37.043Z,3.53
2018-12-03T08:54:05.443Z,3.57
2018-12-03T08:56:33.520Z,3.63
2018-12-03T08:59:01.645Z,3.10
2018-12-03T09:01:29.770Z,3.00
2018-12-03T09:04:01.139Z,3.27
2018-12-03T09:06:29.238Z,3.07
2018-12-03T09:08:57.380Z,3.03
2018-12-03T09:11:25.647Z,2.87
2018-12-03T09:13:54.084Z,2.93
2018-12-03T09:16:22.188Z,2.73
2018-12-03T09:18:50.273Z,2.90
2018-12-03T09:21:18.841Z,2.60
2018-12-03T09:23:48.307Z,2.70
2018-12-03T09:26:16.604Z,2.70
2018-12-03T09:28:44.723Z,2.67
2018-12-03T09:31:17.271Z,2.10
2018-12-03T09:33:53.814Z,2.53
2018-12-03T09:36:21.923Z,2.40
2018-12-03T09:39:13.387Z,2.43
2018-12-03T09:41:41.880Z,2.80
2018-12-03T09:44:10.123Z,2.30
2018-12-03T09:46:38.300Z,2.33
2018-12-03T09:49:07.007Z,2.13
2018-12-03T09:51:36.004Z,2.50
2018-12-03T09:54:06.891Z,2.50
2018-12-03T09:56:41.367Z,2.20
2018-12-03T09:59:12.831Z,2.10
2018-12-03T10:01:41.179Z,2.00
2018-12-03T10:04:29.193Z,2.13
2018-12-03T10:06:56.763Z,2.17
2018-12-03T10:09:24.939Z,2.27
2018-12-03T10:11:57.131Z,2.30
2018-12-03T10:14:25.255Z,1.70
2018-12-03T10:16:53.531Z,2.10
2018-12-03T10:19:21.627Z,2.13
2018-12-03T10:21:49.895Z,2.00
2018-12-03T10:24:17.959Z,2.27
2018-12-03T10:26:46.352Z,1.90
2018-12-03T10:29:15.904Z,2.00
2018-12-03T10:31:44.109Z,2.00
2018-12-03T10:34:15.567Z,2.20
2018-12-03T10:36:52.562Z,2.10
2018-12-03T10:39:22.520Z,2.50
2018-12-03T10:41:57.100Z,2.10
2018-12-03T10:44:25.335Z,2.30
2018-12-03T10:46:53.520Z,1.83
2018-12-03T10:49:21.642Z,2.43
2018-12-03T10:51:49.763Z,2.27
2018-12-03T10:54:17.995Z,2.13
2018-12-03T10:56:46.147Z,2.40
2018-12-03T10:59:14.282Z,2.40
2018-12-03T11:01:46.199Z,2.20
2018-12-03T11:04:19.838Z,2.07
2018-12-03T11:06:47.960Z,2.10
2018-12-03T11:09:16.062Z,1.83
2018-12-03T11:11:49.012Z,2.50
2018-12-03T11:14:17.283Z,2.17
2018-12-03T11:16:47.015Z,1.90
2018-12-03T11:19:15.204Z,2.00
2018-12-03T11:21:43.336Z,2.23
2018-12-03T11:24:15.748Z,2.13
2018-12-03T11:26:46.018Z,2.10
2018-12-03T11:29:14.504Z,2.00
2018-12-03T11:31:42.708Z,2.27
2018-12-03T11:34:10.849Z,2.37
2018-12-03T11:36:43.414Z,2.43
2018-12-03T11:39:18.191Z,2.10
2018-12-03T11:41:46.568Z,2.13
2018-12-03T11:44:15.024Z,2.17
2018-12-03T11:46:43.119Z,1.97
2018-12-03T11:49:11.209Z,2.07
2018-12-03T11:51:39.343Z,2.30
2018-12-03T11:54:07.516Z,2.30
2018-12-03T11:56:36.274Z,2.00
2018-12-03T11:59:04.556Z,2.33
2018-12-03T12:01:32.668Z,2.03
2018-12-03T12:04:00.749Z,2.30
2018-12-03T12:06:28.888Z,2.13
2018-12-03T12:08:56.990Z,2.10
2018-12-03T12:11:25.164Z,2.03
2018-12-03T12:13:53.258Z,1.97
2018-12-03T12:16:21.472Z,2.23
2018-12-03T12:18:49.584Z,2.30
2018-12-03T12:21:17.708Z,1.97
2018-12-03T12:23:45.848Z,2.33
2018-12-03T12:26:13.961Z,2.07
2018-12-03T12:28:42.047Z,2.30
2018-12-03T12:31:10.156Z,1.87
2018-12-03T12:33:38.259Z,2.10
2018-12-03T12:36:06.387Z,2.00
2018-12-03T12:38:34.559Z,2.30
2018-12-03T12:41:02.795Z,1.90
2018-12-03T12:43:30.928Z,2.67
2018-12-03T12:46:01.827Z,2.23
2018-12-03T12:48:29.927Z,2.00
2018-12-03T12:50:58.013Z,2.00
2018-12-03T12:53:26.130Z,2.20
2018-12-03T12:55:54.215Z,2.10
2018-12-03T12:58:22.404Z,2.40
2018-12-03T13:00:50.491Z,2.00
2018-12-03T13:03:19.251Z,2.37
2018-12-03T13:05:47.348Z,2.33
2018-12-03T13:08:15.595Z,2.23
2018-12-03T13:10:43.695Z,1.97
2018-12-03T13:13:12.038Z,2.13
2018-12-03T13:15:40.388Z,2.60
2018-12-03T13:18:09.363Z,2.40
2018-12-03T13:20:36.813Z,2.13
2018-12-03T13:23:05.281Z,2.10
2018-12-03T13:25:33.395Z,2.30
2018-12-03T13:28:01.547Z,2.37
2018-12-03T13:30:29.671Z,2.03
2018-12-03T13:32:57.764Z,2.27
2018-12-03T13:35:26.804Z,1.90
2018-12-03T13:37:54.907Z,2.07
2018-12-03T13:40:23.028Z,2.60
2018-12-03T13:42:51.180Z,2.00
2018-12-03T13:45:21.068Z,1.90
2018-12-03T13:47:49.515Z,1.83
2018-12-03T13:50:17.760Z,2.03
2018-12-03T13:52:45.952Z,2.03
2018-12-03T13:55:18.490Z,2.40
2018-12-03T13:57:46.613Z,2.53
2018-12-03T14:00:17.224Z,5.20
2018-12-03T14:02:47.909Z,2.30
2018-12-03T14:05:17.031Z,2.20
2018-12-03T14:07:50.743Z,2.53
2018-12-03T14:12:33.035Z,2.40
2018-12-03T14:15:10.519Z,2.70
2018-12-03T14:18:14.251Z,2.57
2018-12-03T14:20:44.955Z,2.20
2018-12-03T14:23:15.199Z,2.73
2018-12-03T14:25:43.348Z,2.40
2018-12-03T14:28:11.512Z,3.80
2018-12-03T14:30:39.604Z,3.30
2018-12-03T14:33:07.738Z,2.80
2018-12-03T14:35:35.830Z,3.00
2018-12-03T14:38:03.995Z,2.93
2018-12-03T14:40:32.203Z,3.17
2018-12-03T14:43:00.349Z,2.97
2018-12-03T14:45:28.458Z,3.00
2018-12-03T14:47:56.632Z,3.20
2018-12-03T14:50:24.740Z,2.57
2018-12-03T14:52:52.876Z,4.63
2018-12-03T14:55:21.051Z,3.67
2018-12-03T14:57:49.290Z,5.00
2018-12-03T15:00:17.495Z,6.03
2018-12-03T15:02:45.575Z,2.87
2018-12-03T15:05:13.763Z,3.23
2018-12-03T15:07:41.864Z,3.90
2018-12-03T15:10:10.250Z,2.90
2018-12-03T15:12:38.457Z,2.70
2018-12-03T15:15:08.588Z,2.77
2018-12-03T15:18:08.735Z,2.60
2018-12-03T15:20:36.181Z,2.73
2018-12-03T15:23:03.639Z,4.50
2018-12-03T15:25:31.096Z,3.00
2018-12-03T15:27:58.552Z,2.63
2018-12-03T15:30:26.005Z,2.23
2018-12-03T15:32:53.494Z,3.13
2018-12-03T15:35:20.931Z,11.17
2018-12-03T15:37:48.387Z,3.60
2018-12-03T15:40:15.840Z,2.90
2018-12-03T15:42:43.303Z,3.07
2018-12-03T15:45:10.877Z,4.20
2018-12-03T15:47:38.806Z,5.60
2018-12-03T15:50:06.364Z,3.73
2018-12-03T15:52:33.837Z,6.53
2018-12-03T15:55:01.292Z,3.53
2018-12-03T15:57:28.778Z,6.07
2018-12-03T15:59:56.348Z,5.80
2018-12-03T16:02:23.902Z,4.87
2018-12-03T16:04:51.584Z,4.20
2018-12-03T16:07:19.147Z,18.13
2018-12-03T16:09:46.678Z,6.30
2018-12-03T16:12:14.501Z,4.97
2018-12-03T16:14:42.619Z,6.07
2018-12-03T16:17:10.077Z,6.23
2018-12-03T16:19:37.540Z,6.07
2018-12-03T16:22:04.994Z,5.20
2018-12-03T16:24:32.456Z,5.70
2018-12-03T16:26:59.913Z,4.83
2018-12-03T16:29:27.367Z,5.40
2018-12-03T16:31:54.823Z,5.77
2018-12-03T16:34:22.328Z,6.10
2018-12-03T16:36:49.779Z,4.73
2018-12-03T16:39:17.439Z,5.70
2018-12-03T16:41:44.972Z,4.90
2018-12-03T16:44:12.433Z,4.77
2018-12-03T16:46:39.914Z,4.37
2018-12-03T16:49:07.372Z,5.23
2018-12-03T16:51:34.835Z,4.23
2018-12-03T16:54:02.439Z,5.00
2018-12-03T16:56:29.899Z,4.53
2018-12-03T16:58:57.434Z,4.67
2018-12-03T17:01:24.896Z,3.90
2018-12-03T17:03:52.371Z,4.83
2018-12-03T17:06:19.887Z,4.30
2018-12-03T17:08:47.391Z,4.00
2018-12-03T17:11:15.202Z,3.70
2018-12-03T17:13:42.664Z,4.20
2018-12-03T17:16:10.533Z,4.27
2018-12-03T17:18:38.032Z,3.87
2018-12-03T17:21:05.606Z,4.03
2018-12-03T17:23:33.076Z,4.20
2018-12-03T17:26:00.635Z,4.33
2018-12-03T17:28:28.221Z,3.80
2018-12-03T17:30:55.740Z,3.37
2018-12-03T17:33:23.183Z,3.73
2018-12-03T17:35:50.926Z,3.40
2018-12-03T17:38:19.242Z,3.50
2018-12-03T17:40:46.735Z,3.43
2018-12-03T17:43:14.344Z,3.73
2018-12-03T17:45:41.997Z,3.90
2018-12-03T17:48:13.584Z,3.40
2018-12-03T17:50:41.127Z,3.50
2018-12-03T17:53:08.842Z,3.33
2018-12-03T17:55:36.384Z,3.60
2018-12-03T17:58:03.847Z,3.63
2018-12-03T18:00:31.285Z,3.17
2018-12-03T18:02:58.747Z,3.10
2018-12-03T18:05:26.204Z,3.47
2018-12-03T18:07:53.656Z,3.50
2018-12-03T18:10:21.154Z,3.17
2018-12-03T18:12:50.135Z,3.57
2018-12-03T18:15:17.593Z,3.27
2018-12-03T18:17:45.084Z,3.00
2018-12-03T18:20:12.602Z,3.80
2018-12-03T18:22:40.107Z,3.70
2018-12-03T18:25:07.638Z,3.47
2018-12-03T18:27:35.212Z,3.53
2018-12-03T18:30:03.311Z,3.40
2018-12-03T18:32:30.781Z,3.17
2018-12-03T18:34:58.267Z,3.00
2018-12-03T18:37:25.763Z,3.23
2018-12-03T18:39:53.221Z,3.30
2018-12-03T18:42:20.679Z,2.97
2018-12-03T18:44:48.196Z,3.13
2018-12-03T18:47:15.656Z,3.00
2018-12-03T18:49:43.155Z,3.17
2018-12-03T18:52:10.673Z,3.20
2018-12-03T18:54:38.488Z,2.90
2018-12-03T18:57:06.128Z,3.37
2018-12-03T18:59:33.694Z,3.13
2018-12-03T19:02:01.883Z,2.73
2018-12-03T19:04:29.384Z,2.80
2018-12-03T19:06:56.823Z,2.63
2018-12-03T19:09:24.271Z,2.80
2018-12-03T19:11:51.755Z,2.70
2018-12-03T19:14:19.234Z,3.70
2018-12-03T19:16:46.664Z,3.13
2018-12-03T19:19:14.135Z,2.97
2018-12-03T19:21:41.586Z,2.57
2018-12-03T19:24:09.123Z,2.87
2018-12-03T19:26:36.596Z,3.03
2018-12-03T19:29:04.258Z,2.70
2018-12-03T19:31:31.799Z,3.10
2018-12-03T19:33:59.481Z,2.73
2018-12-03T19:36:26.990Z,3.00
2018-12-03T19:38:56.356Z,2.63
2018-12-03T19:41:23.836Z,2.47
2018-12-03T19:43:51.425Z,2.83
2018-12-03T19:46:18.915Z,3.00
2018-12-03T19:48:46.351Z,3.37
2018-12-03T19:51:13.828Z,2.50
2018-12-03T19:53:41.279Z,2.73
2018-12-03T19:56:08.777Z,2.67
2018-12-03T19:58:36.293Z,2.87
2018-12-03T20:01:04.108Z,2.97
2018-12-03T20:03:31.596Z,2.40
2018-12-03T20:05:59.070Z,2.60
2018-12-03T20:08:26.543Z,2.47
2018-12-03T20:10:54.272Z,2.30
2018-12-03T20:13:21.749Z,2.63
2018-12-03T20:15:49.197Z,2.57
2018-12-03T20:18:16.659Z,2.50
2018-12-03T20:20:44.132Z,2.33
2018-12-03T20:23:11.720Z,2.73
2018-12-03T20:25:39.727Z,2.60
2018-12-03T20:28:07.506Z,2.60
2018-12-03T20:30:37.237Z,2.60
2018-12-03T20:33:04.709Z,2.40
2018-12-03T20:35:32.621Z,2.63
2018-12-03T20:38:00.847Z,2.50
2018-12-03T20:40:28.823Z,2.63
2018-12-03T20:42:57.244Z,2.40
2018-12-03T20:45:36.770Z,2.40
2018-12-03T20:48:05.544Z,2.13
2018-12-03T20:50:33.198Z,2.60
2018-12-03T20:53:01.416Z,2.47
2018-12-03T20:55:29.390Z,2.57
2018-12-03T20:57:57.271Z,2.47
2018-12-03T21:00:24.796Z,2.70
2018-12-03T21:02:52.308Z,2.53
2018-12-03T21:05:19.805Z,2.53
2018-12-03T21:07:47.879Z,2.67
2018-12-03T21:10:15.451Z,2.70
2018-12-03T21:12:43.880Z,2.40
2018-12-03T21:15:11.459Z,2.70
2018-12-03T21:17:39.022Z,2.80
2018-12-03T21:20:10.158Z,2.47
2018-12-03T21:22:37.660Z,2.57
2018-12-03T21:25:05.496Z,2.63
2018-12-03T21:27:33.098Z,2.67
2018-12-03T21:30:00.606Z,2.93
2018-12-03T21:32:29.041Z,2.73
2018-12-03T21:34:57.010Z,2.93
2018-12-03T21:37:24.675Z,2.67
2018-12-03T21:39:52.133Z,2.93
2018-12-03T21:42:19.591Z,2.97
2018-12-03T21:44:47.028Z,2.90
2018-12-03T21:47:14.490Z,3.20
2018-12-03T21:49:41.948Z,2.87
2018-12-03T21:52:09.483Z,3.23
2018-12-03T21:54:36.987Z,3.17
2018-12-03T21:57:04.459Z,2.90
2018-12-03T21:59:31.919Z,3.00
2018-12-03T22:01:59.379Z,2.77
2018-12-03T22:04:26.855Z,3.10
2018-12-03T22:06:54.303Z,2.77
2018-12-03T22:09:21.759Z,3.57
2018-12-03T22:11:49.203Z,2.90
2018-12-03T22:14:16.765Z,2.93
2018-12-03T22:16:44.320Z,3.23
2018-12-03T22:19:11.777Z,3.10
2018-12-03T22:21:39.211Z,2.83
2018-12-03T22:24:06.656Z,3.00
2018-12-03T22:26:34.086Z,3.23
2018-12-03T22:29:01.656Z,2.97
2018-12-03T22:31:29.271Z,2.70
2018-12-03T22:33:56.708Z,3.37
2018-12-03T22:36:24.251Z,2.93
2018-12-03T22:38:51.706Z,3.27
2018-12-03T22:41:19.145Z,2.67
2018-12-03T22:43:46.587Z,2.63
2018-12-03T22:46:14.043Z,3.37
2018-12-03T22:48:41.531Z,3.00
2018-12-03T22:51:08.959Z,2.87
2018-12-03T22:53:36.419Z,2.70
2018-12-03T22:56:03.958Z,2.63
2018-12-03T22:58:31.445Z,2.90
2018-12-03T23:01:00.866Z,2.63
2018-12-03T23:03:28.378Z,2.50
2018-12-03T23:05:55.910Z,2.30
2018-12-03T23:08:23.478Z,2.67
2018-12-03T23:10:51.043Z,2.60
2018-12-03T23:13:18.504Z,2.60
2018-12-03T23:15:46.047Z,2.50
2018-12-03T23:18:13.476Z,2.57
2018-12-03T23:20:40.914Z,2.80
2018-12-03T23:23:08.381Z,3.10
2018-12-03T23:25:35.895Z,2.37
2018-12-03T23:28:03.439Z,3.10
2018-12-03T23:30:30.927Z,3.33
2018-12-03T23:32:58.372Z,3.60
2018-12-03T23:35:25.860Z,3.70
2018-12-03T23:37:53.303Z,3.97
2018-12-03T23:40:20.756Z,4.10
2018-12-03T23:42:48.199Z,4.63
2018-12-03T23:45:15.664Z,4.90
2018-12-03T23:47:43.100Z,5.60
2018-12-03T23:50:10.549Z,6.50
2018-12-03T23:52:38.009Z,7.30
2018-12-03T23:55:05.430Z,8.00
2018-12-03T23:57:32.880Z,9.17
